Terminal Aerodrome Forecast
Issued by NWS

Home | Current Version | Previous Version | Text Only | Print | Product List | Glossary Off
Versions: 1 2 3 4 5 6 7 8 9 10 11 12 13 14 15 16 17

624
FTUS43 KMPX 111720
TAFRNH
TAF
KRNH 111720Z 1118/1218 33011KT 6SM BR VCSH SCT007 OVC012
      TEMPO 1118/1120 3SM -SHSN BR BKN007 OVC015
     FM112000 33015G25KT P6SM SCT007 OVC015
     FM120200 32015G26KT P6SM SCT020
     FM120600 31009KT P6SM SKC
     FM121600 30005KT P6SM BKN100=

USA.gov is the U.S. government's official web portal to all federal, state and local government web resources and services.